LFBA/AGF METAR and TAF weather

Enter ICAO airport designator
Station Type Date Time Source
LFBA METAR 2019/10/23 21:00 UTC NOAA

LFBA 232100Z AUTO 24003KT 210V280 9999 ///CB 15/14 Q1006


Station Type Date Time Source
LFBA Decoded METAR 2019/10/23 21:00 UTC NOAA

Agen, France (LFBA) 44-11N 000-36E 60M
Oct 23, 2019 - 05:00 PM EDT / 2019.10.23 2100 UTC
Wind: from the WSW (240 degrees) at 3 MPH (3 KT) (direction variable):0
Visibility: greater than 7 mile(s):0
Weather: Cumulonimbus clouds observed
Temperature: 59 F (15 C)
Dew Point: 57 F (14 C)
Relative Humidity: 93%
Pressure (altimeter): 29.71 in. Hg (1006 hPa)
ob: LFBA 232100Z AUTO 24003KT 210V280 9999 ///CB 15/14 Q1006
cycle: 21

Station Type Date Time Source
LFBA TAF 2014/12/22 20:03 UTC NOAA

TAF
AMD TAF
AMD LFBA 222037Z 2220/2224 12007KT 0400 FG VV///
TEMPO 2220/2224 0100 PROB30
TEMPO 2222/2224 FZFG

Example: see airport list